Time;durP1;ratioP1;P1;durP2;ratioP2;P2;SDS_P1;SDS_P2;PMS_P1;PMS_P2;Temp;Humidity;BMP_temperature;BMP_pressure;BME280_temperature;BME280_humidity;BME280_pressure;Samples;Min_cycle;Max_cycle;Signal;HPM_P1;HPM_P2
2022/01/18 00:00:44;;;;;;;2.53;1.60;;;;;;;4.13;49.30;101808.69;2581221;23;20209;-73
2022/01/18 00:01:45;;;;;;;3.53;1.20;;;;;;;4.83;48.73;101908.91;2581951;23;20383;-74
2022/01/18 00:02:46;;;;;;;2.95;1.83;;;;;;;4.74;48.94;101932.28;2581953;23;20157;-73
2022/01/18 00:03:47;;;;;;;2.43;1.37;;;;;;;4.65;47.86;101937.19;2580958;23;20182;-74
2022/01/18 00:04:47;;;;;;;2.60;1.60;;;;;;;4.71;48.38;101954.94;2581422;23;20233;-73
2022/01/18 00:05:50;;;;;;;3.53;1.50;;;;;;;4.17;48.02;101869.91;2581868;23;20495;-73
2022/01/18 00:06:52;;;;;;;2.30;1.42;;;;;;;4.56;47.53;101945.63;2568163;23;20162;-74
2022/01/18 00:07:53;;;;;;;1.52;1.10;;;;;;;4.79;47.36;101974.00;2568945;23;20157;-73
2022/01/18 00:08:54;;;;;;;3.70;1.30;;;;;;;3.94;47.21;101857.22;2581979;23;20608;-73
2022/01/18 00:09:55;;;;;;;2.90;1.40;;;;;;;4.06;46.82;101868.84;2581801;23;20278;-73
2022/01/18 00:10:55;;;;;;;3.40;1.40;;;;;;;4.75;47.05;101980.53;2581182;23;20157;-73
2022/01/18 00:14:12;;;;;;;1.95;1.25;;;;;;;4.66;46.06;102001.94;2580533;23;20214;-73
2022/01/18 00:17:40;;;;;;;2.53;1.20;;;;;;;4.77;45.64;102009.25;2582193;23;20577;-73
2022/01/18 00:18:41;;;;;;;2.30;1.20;;;;;;;4.69;44.17;102012.19;2582940;23;20142;-74
2022/01/18 00:19:46;;;;;;;2.47;1.13;;;;;;;4.63;45.84;102013.63;2582842;23;20158;-73
2022/01/18 00:22:50;;;;;;;3.03;1.10;;;;;;;4.25;45.85;101973.16;2582753;23;20249;-74
2022/01/18 00:23:54;;;;;;;2.80;1.10;;;;;;;4.36;46.11;102001.66;2581580;23;20184;-73
2022/01/18 00:24:57;;;;;;;2.42;1.20;;;;;;;4.40;45.73;102001.72;2582502;23;20430;-73
2022/01/18 00:25:58;;;;;;;2.35;1.08;;;;;;;4.02;45.71;101946.75;2582655;23;20182;-73
2022/01/18 00:26:59;;;;;;;2.55;1.20;;;;;;;4.30;45.64;102018.75;2582453;23;20177;-73
2022/01/18 00:28:00;;;;;;;1.83;1.00;;;;;;;4.46;45.77;102030.50;2582808;23;20157;-73
2022/01/18 00:29:08;;;;;;;1.98;1.00;;;;;;;4.47;45.42;102030.13;2582873;23;20178;-73
2022/01/18 00:31:39;;;;;;;2.85;1.17;;;;;;;4.30;44.75;102022.28;2582540;23;20146;-74
2022/01/18 00:34:47;;;;;;;1.77;1.00;;;;;;;4.33;45.00;102090.19;2582118;23;20220;-73
2022/01/18 00:35:56;;;;;;;2.70;1.20;;;;;;;4.19;44.50;102084.34;2582616;23;20160;-73
2022/01/18 00:39:40;;;;;;;2.25;1.00;;;;;;;4.42;44.23;102123.72;2543485;23;20164;-73
2022/01/18 00:40:41;;;;;;;2.25;0.90;;;;;;;4.01;43.55;102049.41;2574709;23;20161;-73
2022/01/18 00:41:42;;;;;;;1.40;0.80;;;;;;;4.46;43.54;102119.13;2582782;23;20174;-73
2022/01/18 00:42:42;;;;;;;1.50;0.80;;;;;;;4.48;43.27;102113.28;2569340;23;20219;-73
2022/01/18 00:43:44;;;;;;;1.90;1.03;;;;;;;4.50;43.48;102125.50;2568286;23;20165;-73
2022/01/18 00:44:44;;;;;;;1.58;0.90;;;;;;;3.49;43.02;101969.31;2582097;23;20150;-73
2022/01/18 00:45:45;;;;;;;2.73;1.07;;;;;;;4.23;43.64;102081.69;2582331;23;20158;-73
2022/01/18 00:46:45;;;;;;;2.33;1.00;;;;;;;3.93;43.31;102040.19;2582007;23;20697;-73
2022/01/18 00:47:46;;;;;;;2.57;1.00;;;;;;;4.44;43.75;102112.41;2582601;23;20239;-73
2022/01/18 00:48:47;;;;;;;1.70;1.00;;;;;;;3.70;43.83;101998.06;2582558;23;20479;-73
2022/01/18 00:49:49;;;;;;;3.00;1.03;;;;;;;3.64;43.23;102007.69;2582823;23;20242;-73
2022/01/18 00:50:52;;;;;;;2.97;0.88;;;;;;;4.35;43.33;102131.00;2582505;23;20149;-73
2022/01/18 00:51:56;;;;;;;1.77;0.93;;;;;;;3.51;43.16;101997.97;2582546;23;20169;-74
2022/01/18 00:52:57;;;;;;;1.73;0.70;;;;;;;3.97;43.26;102078.69;2582679;23;20152;-73
2022/01/18 00:53:59;;;;;;;2.67;0.93;;;;;;;4.37;43.58;102132.22;2567980;23;20155;-73
2022/01/18 00:55:01;;;;;;;2.00;1.10;;;;;;;3.62;43.36;102010.00;2569430;23;20212;-73
2022/01/18 00:56:18;;;;;;;3.15;1.10;;;;;;;4.37;43.53;102123.22;2582629;23;20158;-73
2022/01/18 00:57:18;;;;;;;4.57;1.10;;;;;;;4.40;43.05;102127.97;2581802;23;20150;-73
2022/01/18 00:58:19;;;;;;;2.60;0.87;;;;;;;4.23;43.26;102098.97;2582996;23;20151;-73
2022/01/18 00:59:21;;;;;;;2.37;1.03;;;;;;;3.93;42.53;102053.91;2582348;23;20155;-74
2022/01/18 01:00:22;;;;;;;3.22;1.10;;;;;;;2.98;43.08;101923.72;2582766;23;20229;-73
2022/01/18 01:01:28;;;;;;;1.70;0.90;;;;;;;4.36;43.06;102141.63;2582551;23;20212;-73
2022/01/18 01:02:28;;;;;;;2.42;1.00;;;;;;;4.33;42.69;102136.84;2582740;23;20200;-73
2022/01/18 01:03:29;;;;;;;2.27;0.87;;;;;;;4.36;42.89;102143.59;2581396;23;20219;-73
2022/01/18 01:04:34;;;;;;;2.17;0.97;;;;;;;4.18;42.65;102120.38;2569212;23;20209;-73
2022/01/18 01:05:34;;;;;;;2.20;1.05;;;;;;;4.30;42.13;102144.97;2569773;23;20222;-73
2022/01/18 01:06:37;;;;;;;2.23;1.00;;;;;;;3.67;42.70;102066.50;2581887;23;20219;-73
2022/01/18 01:07:40;;;;;;;2.30;1.10;;;;;;;4.32;41.55;102143.47;2582310;23;20157;-74
2022/01/18 01:08:41;;;;;;;4.07;1.23;;;;;;;4.26;42.68;102160.59;2581861;23;20606;-73
2022/01/18 01:09:41;;;;;;;2.33;1.00;;;;;;;4.28;42.25;102169.25;2581556;23;20509;-73
2022/01/18 01:10:43;;;;;;;2.17;1.17;;;;;;;4.26;43.29;102163.31;2582742;23;20163;-73
2022/01/18 01:11:44;;;;;;;2.08;0.98;;;;;;;4.25;43.07;102162.50;2582472;23;20220;-73
2022/01/18 01:12:44;;;;;;;3.22;1.15;;;;;;;3.11;43.43;102010.13;2582546;23;20151;-73
2022/01/18 01:13:48;;;;;;;1.80;0.90;;;;;;;2.00;43.31;101806.78;2581360;23;20149;-73
2022/01/18 01:14:52;;;;;;;1.88;0.98;;;;;;;3.77;43.67;102101.66;2582589;23;20151;-73
2022/01/18 01:17:30;;;;;;;2.08;1.35;;;;;;;4.31;43.51;102163.84;2581772;23;20221;-73
2022/01/18 01:42:56;;;;;;;2.85;1.10;;;;;;;3.84;44.85;102178.63;2582519;23;20148;-73
2022/01/18 01:44:04;;;;;;;1.92;1.20;;;;;;;3.78;44.70;102160.81;2580978;23;20492;-73
2022/01/18 01:45:07;;;;;;;2.72;1.00;;;;;;;3.51;45.05;102135.00;2582501;23;20498;-73
2022/01/18 01:46:07;;;;;;;2.85;1.30;;;;;;;3.64;45.23;102146.72;2582206;23;20180;-73
2022/01/18 01:47:10;;;;;;;3.77;1.20;;;;;;;3.75;44.98;102156.06;2581784;23;20208;-73
2022/01/18 01:48:10;;;;;;;2.25;0.95;;;;;;;3.83;45.35;102166.06;2582291;23;20159;-73
2022/01/18 01:49:14;;;;;;;2.10;0.90;;;;;;;3.82;45.00;102165.28;2582047;23;20150;-73
2022/01/18 01:50:18;;;;;;;2.65;1.00;;;;;;;3.22;45.09;102072.31;2582636;23;20506;-73
2022/01/18 01:51:20;;;;;;;2.50;0.93;;;;;;;3.56;45.59;102139.44;2582266;23;20213;-74
2022/01/18 01:52:21;;;;;;;1.63;0.80;;;;;;;3.26;45.17;102089.66;2582630;23;20715;-73
2022/01/18 01:53:25;;;;;;;2.17;1.00;;;;;;;2.88;45.53;102047.44;2581287;23;20582;-73
2022/01/18 01:54:25;;;;;;;2.50;1.08;;;;;;;3.72;45.34;102173.19;2569030;23;20150;-73
2022/01/18 01:55:26;;;;;;;2.17;1.03;;;;;;;3.43;45.46;102135.94;2568906;23;20256;-73
2022/01/18 01:56:28;;;;;;;1.50;0.80;;;;;;;3.72;46.03;102184.16;2582255;23;20149;-73
2022/01/18 01:57:29;;;;;;;2.00;0.85;;;;;;;3.73;45.42;102191.22;2581532;23;20229;-73
2022/01/18 01:58:30;;;;;;;1.53;1.07;;;;;;;3.72;45.79;102179.47;2569250;23;20527;-74
2022/01/18 01:59:30;;;;;;;2.15;1.10;;;;;;;3.45;45.93;102152.03;2568970;23;20604;-73
2022/01/18 02:00:31;;;;;;;2.20;1.00;;;;;;;3.70;45.30;102187.22;2581849;23;20229;-73
2022/01/18 02:01:44;;;;;;;2.10;0.97;;;;;;;3.73;45.04;102183.00;2582307;23;20147;-73
2022/01/18 02:02:44;;;;;;;1.52;0.80;;;;;;;3.65;45.54;102176.50;2568927;23;20147;-73
2022/01/18 02:03:46;;;;;;;2.63;1.20;;;;;;;3.58;45.26;102170.03;2567971;23;20616;-73
2022/01/18 02:04:47;;;;;;;2.33;1.10;;;;;;;3.18;45.40;102119.94;2581199;23;20243;-73
2022/01/18 02:05:47;;;;;;;1.77;1.03;;;;;;;2.45;45.06;101998.81;2581511;23;20176;-73
2022/01/18 02:06:48;;;;;;;3.03;0.90;;;;;;;3.75;45.12;102197.97;2581707;23;20153;-73
2022/01/18 02:07:50;;;;;;;3.60;1.10;;;;;;;3.76;45.50;102196.03;2582007;23;20162;-73
2022/01/18 02:08:51;;;;;;;2.25;1.15;;;;;;;3.18;45.44;102111.72;2581455;23;20158;-73
2022/01/18 02:09:52;;;;;;;2.63;0.90;;;;;;;3.76;45.26;102204.25;2581431;23;20612;-73
2022/01/18 02:10:52;;;;;;;1.73;1.00;;;;;;;3.67;45.55;102189.88;2582271;23;20263;-73
2022/01/18 02:11:56;;;;;;;1.90;1.07;;;;;;;3.75;45.59;102200.69;2582507;23;20159;-74
2022/01/18 02:12:56;;;;;;;2.38;1.10;;;;;;;3.36;45.12;102145.91;2582335;23;20159;-73
2022/01/18 02:13:58;;;;;;;1.73;1.07;;;;;;;3.17;45.22;102121.06;2581017;23;20150;-73
2022/01/18 02:15:01;;;;;;;2.90;1.15;;;;;;;2.56;45.53;102038.25;2582333;23;20159;-73
2022/01/18 02:22:19;;;;;;;1.73;1.05;;;;;;;3.74;45.09;102207.34;2582446;23;20146;-73
2022/01/18 02:23:20;;;;;;;2.67;1.20;;;;;;;3.76;44.78;102227.00;2581331;23;20151;-73
2022/01/18 02:24:22;;;;;;;2.63;1.00;;;;;;;3.06;45.25;102126.22;2582162;23;20587;-73
2022/01/18 02:25:24;;;;;;;2.97;1.15;;;;;;;2.40;45.10;102033.81;2582061;23;20153;-73
2022/01/18 02:26:24;;;;;;;2.60;1.10;;;;;;;3.61;45.21;102221.44;2568849;23;20236;-73
2022/01/18 02:27:25;;;;;;;2.97;1.13;;;;;;;3.52;45.02;102185.13;2568262;23;20222;-73
2022/01/18 02:28:27;;;;;;;2.63;1.20;;;;;;;3.71;45.24;102219.03;2582296;23;20154;-73
2022/01/18 02:29:27;;;;;;;2.40;1.20;;;;;;;2.93;44.90;102091.00;2582207;23;20606;-73
2022/01/18 02:30:28;;;;;;;3.50;1.50;;;;;;;3.12;44.86;102138.53;2569083;23;20236;-73
2022/01/18 02:31:29;;;;;;;2.80;1.20;;;;;;;3.83;44.53;102238.16;2568791;23;20160;-73
2022/01/18 02:32:29;;;;;;;1.90;1.30;;;;;;;3.78;45.12;102238.41;2569103;23;20190;-73
2022/01/18 02:33:30;;;;;;;1.90;1.10;;;;;;;3.74;45.27;102248.47;2567710;23;20516;-73
2022/01/18 02:34:30;;;;;;;2.40;1.07;;;;;;;3.13;44.85;102137.38;2582253;23;20612;-73
2022/01/18 02:35:34;;;;;;;2.53;1.20;;;;;;;3.77;45.34;102241.50;2582256;23;20174;-73
2022/01/18 02:36:36;;;;;;;3.13;1.40;;;;;;;3.76;45.36;102235.22;2581667;23;20202;-73
2022/01/18 02:37:36;;;;;;;2.60;1.10;;;;;;;3.54;45.36;102226.72;2568582;23;20161;-73
2022/01/18 02:38:37;;;;;;;4.00;1.20;;;;;;;3.80;44.67;102233.38;2568557;23;20224;-73
2022/01/18 02:39:39;;;;;;;2.43;1.27;;;;;;;3.50;44.89;102184.69;2568496;23;20157;-73
2022/01/18 02:40:41;;;;;;;3.88;1.40;;;;;;;3.59;45.13;102212.78;2569254;23;20157;-73
2022/01/18 02:41:41;;;;;;;2.97;1.20;;;;;;;3.80;45.35;102235.31;2582260;23;20154;-73
2022/01/18 02:42:45;;;;;;;2.47;1.20;;;;;;;3.28;45.28;102144.13;2582261;23;20150;-73
2022/01/18 02:43:50;;;;;;;3.55;1.52;;;;;;;3.59;45.36;102210.81;2581301;23;20207;-73
2022/01/18 02:44:52;;;;;;;2.58;1.30;;;;;;;3.78;45.67;102234.84;2582165;23;20135;-73
2022/01/18 02:45:54;;;;;;;2.85;1.30;;;;;;;3.81;45.92;102239.66;2581876;23;20153;-73
2022/01/18 02:46:55;;;;;;;2.40;1.30;;;;;;;3.60;45.61;102201.44;2581511;23;20157;-74
2022/01/18 02:47:55;;;;;;;3.15;1.25;;;;;;;2.89;45.95;102099.13;2581898;23;20159;-73
2022/01/18 02:48:57;;;;;;;2.30;1.00;;;;;;;3.53;46.00;102205.91;2582147;23;20656;-73
2022/01/18 02:49:58;;;;;;;3.47;1.30;;;;;;;3.38;46.10;102204.69;2582068;23;20221;-73
2022/01/18 02:50:58;;;;;;;1.97;1.10;;;;;;;3.69;46.21;102232.25;2582241;23;20150;-73
2022/01/18 02:52:00;;;;;;;3.23;1.37;;;;;;;3.77;46.58;102256.00;2582448;23;20158;-73
2022/01/18 02:53:01;;;;;;;2.50;1.23;;;;;;;3.77;46.28;102249.72;2582098;23;20148;-73
2022/01/18 02:54:07;;;;;;;2.57;1.30;;;;;;;3.82;46.46;102239.31;2580856;23;20154;-73
2022/01/18 02:55:08;;;;;;;3.25;1.25;;;;;;;3.76;46.42;102242.66;2582145;23;20153;-73
2022/01/18 02:56:08;;;;;;;2.27;1.20;;;;;;;3.31;47.08;102179.84;2582378;23;20149;-73
2022/01/18 02:57:15;;;;;;;3.20;1.27;;;;;;;3.64;46.82;102234.47;2581401;23;20156;-73
2022/01/18 02:58:23;;;;;;;2.25;1.10;;;;;;;3.71;46.59;102253.84;2582067;23;20134;-73
2022/01/18 03:03:21;;;;;;;2.40;1.23;;;;;;;3.59;47.31;102256.63;2581682;23;20141;-73
2022/01/18 03:04:22;;;;;;;2.85;1.48;;;;;;;3.59;46.98;102267.59;2568510;23;20661;-73
2022/01/18 03:05:22;;;;;;;3.77;1.40;;;;;;;2.80;46.98;102147.72;2568829;23;20518;-73
2022/01/18 03:06:22;;;;;;;4.47;1.70;;;;;;;3.58;47.33;102261.31;2582300;23;20221;-73
2022/01/18 03:07:23;;;;;;;3.17;1.60;;;;;;;3.54;47.77;102267.84;2580903;23;20550;-73
2022/01/18 03:08:24;;;;;;;2.30;1.30;;;;;;;3.52;47.61;102272.84;2582164;23;20152;-73
2022/01/18 03:09:25;;;;;;;3.00;1.40;;;;;;;3.05;47.65;102228.72;2582035;23;20202;-73
2022/01/18 03:10:25;;;;;;;3.67;1.40;;;;;;;3.23;47.79;102226.53;2582232;23;20196;-73
2022/01/18 03:11:26;;;;;;;2.30;1.27;;;;;;;3.50;48.04;102272.41;2568746;23;20155;-73
2022/01/18 03:12:27;;;;;;;3.13;1.37;;;;;;;3.38;47.86;102277.91;2569179;23;20586;-73
2022/01/18 03:13:27;;;;;;;2.45;1.40;;;;;;;3.18;48.17;102224.03;2580795;23;20196;-73
2022/01/18 03:14:28;;;;;;;3.07;1.50;;;;;;;3.18;47.89;102249.47;2582031;23;20147;-73
2022/01/18 03:15:29;;;;;;;2.07;1.23;;;;;;;3.48;48.39;102285.63;2582011;23;20154;-73
2022/01/18 03:16:29;;;;;;;2.17;1.30;;;;;;;3.37;48.19;102300.94;2582073;23;20498;-73
2022/01/18 03:17:30;;;;;;;3.00;1.33;;;;;;;3.41;48.67;102294.47;2581489;23;20622;-73
2022/01/18 03:18:30;;;;;;;3.13;1.20;;;;;;;3.10;48.31;102235.91;2582200;23;20231;-73
2022/01/18 03:19:31;;;;;;;2.67;1.20;;;;;;;3.45;48.08;102287.13;2582000;23;20148;-73
2022/01/18 03:20:31;;;;;;;4.60;1.40;;;;;;;2.74;48.17;102203.03;2582037;23;20146;-73
2022/01/18 03:21:32;;;;;;;3.43;1.40;;;;;;;2.97;48.42;102257.00;2568282;23;20155;-73
2022/01/18 03:22:33;;;;;;;2.80;1.50;;;;;;;3.36;49.29;102305.66;2568584;23;20223;-73
2022/01/18 03:23:33;;;;;;;3.38;1.30;;;;;;;2.56;48.66;102177.03;2581058;23;20155;-74
2022/01/18 03:28:14;;;;;;;3.72;1.60;;;;;;;3.38;49.25;102316.28;2582150;23;20140;-73
2022/01/18 03:29:14;;;;;;;2.75;1.23;;;;;;;3.34;48.70;102329.84;2581789;23;20647;-73
2022/01/18 03:30:15;;;;;;;3.37;1.37;;;;;;;3.31;49.46;102336.03;2582359;23;20488;-73
2022/01/18 03:31:16;;;;;;;3.03;1.53;;;;;;;3.22;49.41;102315.34;2581939;23;20146;-73
2022/01/18 03:32:16;;;;;;;3.70;1.57;;;;;;;3.23;49.37;102334.19;2582367;23;20153;-73
2022/01/18 03:33:18;;;;;;;3.37;1.40;;;;;;;2.64;49.32;102237.13;2581279;23;20161;-73
2022/01/18 03:34:19;;;;;;;3.38;1.33;;;;;;;3.29;49.52;102338.28;2568224;23;20162;-73
2022/01/18 03:35:21;;;;;;;5.07;1.60;;;;;;;3.26;49.99;102341.72;2568642;23;20299;-73
2022/01/18 03:36:21;;;;;;;3.15;1.48;;;;;;;3.21;49.57;102341.94;2582248;23;20202;-73
2022/01/18 03:37:22;;;;;;;3.23;1.50;;;;;;;2.60;49.80;102238.13;2581091;23;20150;-73
2022/01/18 03:38:30;;;;;;;2.13;1.30;;;;;;;3.18;50.12;102334.41;2582369;23;20150;-73
2022/01/18 03:39:31;;;;;;;3.13;1.30;;;;;;;3.25;49.83;102356.56;2581798;23;20129;-73
2022/01/18 03:40:32;;;;;;;3.43;1.73;;;;;;;3.29;49.65;102365.69;2582194;23;20146;-73
2022/01/18 03:41:32;;;;;;;2.83;1.43;;;;;;;2.61;49.47;102272.56;2581033;23;20181;-73
2022/01/18 03:43:35;;;;;;;3.00;1.40;;;;;;;3.39;49.53;102370.72;2580989;23;20160;-73
2022/01/18 03:44:35;;;;;;;3.03;1.40;;;;;;;3.41;49.45;102376.69;2582003;23;20150;-73
2022/01/18 03:45:41;;;;;;;3.33;1.60;;;;;;;2.95;49.86;102316.81;2582123;23;20158;-73
2022/01/18 03:46:42;;;;;;;2.30;1.38;;;;;;;3.33;49.89;102391.28;2581578;23;20141;-73
2022/01/18 03:47:45;;;;;;;3.80;1.60;;;;;;;3.36;49.98;102387.84;2581656;23;20154;-73
2022/01/18 03:48:50;;;;;;;2.65;1.48;;;;;;;3.18;49.56;102370.00;2582001;23;20154;-73
2022/01/18 03:49:50;;;;;;;2.47;1.42;;;;;;;3.27;49.85;102389.09;2581770;23;20162;-73
2022/01/18 03:50:52;;;;;;;2.80;1.40;;;;;;;3.32;50.44;102392.41;2582575;23;20153;-73
2022/01/18 03:51:52;;;;;;;2.55;1.23;;;;;;;2.70;49.71;102290.53;2582946;23;20156;-73
2022/01/18 03:52:53;;;;;;;2.63;1.40;;;;;;;3.20;50.12;102386.13;2582913;23;20165;-73
2022/01/18 03:53:53;;;;;;;2.43;1.47;;;;;;;3.39;49.64;102389.91;2581639;23;20235;-73
2022/01/18 03:54:54;;;;;;;3.13;1.93;;;;;;;3.12;50.04;102352.19;2582871;23;20709;-73
2022/01/18 03:55:56;;;;;;;3.37;1.70;;;;;;;1.74;50.25;102139.00;2582923;23;20237;-73
2022/01/18 03:56:56;;;;;;;3.25;1.40;;;;;;;3.01;50.40;102334.63;2582435;23;20503;-73
2022/01/18 03:57:57;;;;;;;3.27;1.43;;;;;;;3.32;50.51;102402.56;2582588;23;20161;-73
2022/01/18 03:58:57;;;;;;;3.07;1.60;;;;;;;3.30;50.45;102381.00;2582828;23;20221;-73
2022/01/18 03:59:58;;;;;;;3.00;1.60;;;;;;;3.34;50.34;102387.38;2582792;23;20213;-73
2022/01/18 04:00:59;;;;;;;3.97;1.67;;;;;;;3.43;50.15;102385.34;2582845;23;20608;-73
2022/01/18 04:01:59;;;;;;;3.30;1.60;;;;;;;3.35;50.19;102393.69;2583102;23;20154;-73
2022/01/18 04:03:00;;;;;;;3.77;1.70;;;;;;;3.36;50.46;102387.84;2582915;23;20149;-73
2022/01/18 04:04:00;;;;;;;4.20;1.57;;;;;;;3.29;50.11;102390.34;2581460;23;20154;-73
2022/01/18 04:05:02;;;;;;;3.47;1.80;;;;;;;3.30;49.87;102383.75;2582765;23;20247;-73
2022/01/18 04:06:03;;;;;;;2.58;1.50;;;;;;;3.35;50.64;102388.19;2582884;23;20173;-73
2022/01/18 04:07:04;;;;;;;2.80;1.47;;;;;;;3.25;50.51;102383.16;2581650;23;20167;-73
2022/01/18 04:08:05;;;;;;;3.60;1.70;;;;;;;3.26;50.13;102384.75;2581704;23;20205;-73
2022/01/18 04:09:05;;;;;;;4.93;1.93;;;;;;;3.06;50.37;102342.63;2582891;23;20180;-73
2022/01/18 04:10:07;;;;;;;4.17;1.50;;;;;;;3.32;50.23;102377.91;2582435;23;20221;-73
2022/01/18 04:11:08;;;;;;;2.78;1.50;;;;;;;2.45;50.29;102244.25;2582650;23;20158;-73
2022/01/18 04:12:09;;;;;;;4.37;1.83;;;;;;;3.39;50.23;102380.91;2583120;23;20148;-73
2022/01/18 04:13:09;;;;;;;3.67;1.43;;;;;;;2.84;50.13;102314.84;2582709;23;20167;-73
2022/01/18 04:14:10;;;;;;;3.23;1.80;;;;;;;3.34;50.49;102378.38;2581773;23;20675;-73
2022/01/18 04:15:13;;;;;;;3.60;1.60;;;;;;;2.55;50.24;102263.81;2583052;23;20234;-73
2022/01/18 04:16:15;;;;;;;5.80;1.90;;;;;;;2.81;50.45;102302.63;2582953;23;20232;-73
2022/01/18 04:18:50;;;;;;;4.03;1.65;;;;;;;2.82;50.15;102300.72;2582740;23;20220;-73
2022/01/18 04:27:27;;;;;;;3.67;1.73;;;;;;;3.25;50.96;102381.22;2582016;23;20172;-73
2022/01/18 04:28:39;;;;;;;4.17;1.97;;;;;;;2.80;51.14;102292.81;2581804;23;20152;-73
2022/01/18 04:29:39;;;;;;;3.25;1.73;;;;;;;2.58;50.73;102270.53;2581975;23;20535;-73
2022/01/18 04:30:40;;;;;;;4.70;2.20;;;;;;;3.30;50.65;102378.28;2569500;23;20540;-73
2022/01/18 04:31:41;;;;;;;3.83;1.47;;;;;;;2.89;51.13;102320.09;2569244;23;20150;-73
2022/01/18 04:32:41;;;;;;;3.40;1.73;;;;;;;3.32;50.83;102366.94;2581801;23;20208;-73
2022/01/18 04:33:42;;;;;;;3.27;1.70;;;;;;;2.28;50.65;102231.59;2580713;23;20157;-73
2022/01/18 04:34:42;;;;;;;3.63;1.50;;;;;;;3.08;50.70;102350.50;2582623;23;20234;-73
2022/01/18 04:35:43;;;;;;;4.00;1.70;;;;;;;3.11;51.00;102378.00;2582798;23;20154;-73
2022/01/18 04:36:45;;;;;;;3.57;1.90;;;;;;;2.42;50.87;102251.22;2568936;23;20184;-73
2022/01/18 04:37:46;;;;;;;3.10;1.90;;;;;;;3.27;51.02;102381.69;2569672;23;20214;-73
2022/01/18 04:38:46;;;;;;;4.30;1.80;;;;;;;3.30;50.83;102393.91;2568974;23;20182;-73
2022/01/18 04:39:48;;;;;;;2.57;1.47;;;;;;;2.95;50.71;102354.34;2569076;23;20154;-73
2022/01/18 04:40:49;;;;;;;3.45;1.63;;;;;;;3.27;50.57;102395.38;2582572;23;20607;-73
2022/01/18 04:41:50;;;;;;;3.42;1.70;;;;;;;3.32;50.68;102408.03;2582913;23;20533;-73
2022/01/18 04:44:08;;;;;;;2.97;1.73;;;;;;;3.18;50.63;102391.94;2581636;23;20159;-73
2022/01/18 04:48:27;;;;;;;2.55;1.63;;;;;;;3.13;50.65;102403.09;2582603;23;20139;-73
2022/01/18 04:49:28;;;;;;;3.17;1.60;;;;;;;3.00;51.02;102378.78;2582636;23;20134;-73
2022/01/18 04:50:28;;;;;;;3.42;1.60;;;;;;;3.24;51.16;102411.69;2582653;23;20156;-73
2022/01/18 04:51:29;;;;;;;3.03;1.63;;;;;;;3.23;50.65;102404.63;2582445;23;20185;-73
2022/01/18 04:52:29;;;;;;;3.10;1.67;;;;;;;3.26;50.39;102415.72;2582539;23;20160;-73
2022/01/18 04:53:32;;;;;;;3.03;1.80;;;;;;;2.63;50.62;102314.91;2581338;23;20148;-73
2022/01/18 04:54:32;;;;;;;4.10;1.70;;;;;;;2.57;50.79;102305.31;2581822;23;20159;-73
2022/01/18 04:55:35;;;;;;;2.50;1.47;;;;;;;3.06;50.27;102380.16;2581667;23;20610;-73
2022/01/18 04:57:52;;;;;;;4.47;1.90;;;;;;;2.98;50.98;102361.88;2582536;23;20767;-73
2022/01/18 04:58:53;;;;;;;3.25;1.60;;;;;;;3.38;50.62;102432.16;2582313;23;20134;-73
2022/01/18 04:59:53;;;;;;;3.93;1.90;;;;;;;3.32;50.76;102419.81;2582706;23;20223;-66
2022/01/18 05:00:58;;;;;;;5.53;1.83;;;;;;;2.61;50.29;102314.44;2582202;23;20557;-67
2022/01/18 05:01:59;;;;;;;3.17;1.95;;;;;;;2.96;50.58;102361.41;2568816;23;20157;-67
2022/01/18 05:03:00;;;;;;;2.60;1.60;;;;;;;2.84;50.64;102364.13;2569214;23;20153;-67
2022/01/18 05:04:00;;;;;;;3.57;1.90;;;;;;;3.39;50.67;102441.19;2581571;23;20173;-67
2022/01/18 05:05:01;;;;;;;3.10;1.70;;;;;;;3.37;50.74;102436.03;2569154;23;20217;-66
2022/01/18 05:06:08;;;;;;;3.43;1.87;;;;;;;3.41;50.52;102447.13;2569281;23;20195;-66
2022/01/18 05:07:11;;;;;;;4.18;1.65;;;;;;;3.32;50.59;102436.25;2581454;23;20602;-67
2022/01/18 05:08:13;;;;;;;2.83;1.60;;;;;;;2.70;50.40;102341.72;2582460;23;20158;-66
2022/01/18 05:09:14;;;;;;;3.03;1.75;;;;;;;2.77;51.12;102352.94;2582142;23;20160;-67
2022/01/18 05:10:16;;;;;;;2.73;1.60;;;;;;;3.28;50.82;102443.56;2582500;23;20697;-66
2022/01/18 05:11:20;;;;;;;3.55;1.73;;;;;;;3.36;50.94;102461.84;2582482;23;20156;-67
2022/01/18 05:12:36;;;;;;;3.50;1.88;;;;;;;1.99;50.87;102237.19;2582773;23;20159;-67
2022/01/18 05:14:38;;;;;;;3.03;2.00;;;;;;;3.41;50.94;102458.91;2582351;23;20544;-67
2022/01/18 05:15:46;;;;;;;3.05;1.80;;;;;;;3.39;50.31;102454.91;2582405;23;20184;-67
2022/01/18 05:17:03;;;;;;;3.85;1.77;;;;;;;2.72;50.55;102344.94;2582059;23;20203;-67
2022/01/18 05:19:45;;;;;;;2.83;1.65;;;;;;;3.39;50.96;102461.16;2582208;23;20534;-67
2022/01/18 05:23:06;;;;;;;3.97;2.08;;;;;;;2.62;51.24;102359.06;2582403;23;20244;-66
2022/01/18 05:24:07;;;;;;;4.07;1.97;;;;;;;3.22;51.07;102458.63;2581241;23;20578;-67
2022/01/18 05:25:07;;;;;;;2.97;1.73;;;;;;;2.68;51.18;102360.44;2582501;23;20159;-67
2022/01/18 05:26:08;;;;;;;3.40;1.90;;;;;;;2.80;50.85;102377.69;2582512;23;20187;-66
2022/01/18 05:27:08;;;;;;;2.87;1.87;;;;;;;3.08;51.35;102440.88;2581890;23;20152;-66
2022/01/18 05:28:09;;;;;;;3.67;2.20;;;;;;;3.32;51.10;102471.06;2582498;23;20157;-66
2022/01/18 05:29:09;;;;;;;3.63;2.17;;;;;;;3.26;50.88;102476.00;2581976;23;20157;-66
2022/01/18 05:30:10;;;;;;;5.30;3.07;;;;;;;2.75;51.65;102401.75;2582554;23;20152;-67
2022/01/18 05:31:11;;;;;;;3.47;1.95;;;;;;;2.95;51.02;102433.75;2581955;23;20611;-66
2022/01/18 05:32:11;;;;;;;3.03;1.70;;;;;;;2.75;51.30;102418.97;2582503;23;20417;-67
2022/01/18 05:33:12;;;;;;;3.93;2.20;;;;;;;3.24;51.15;102486.47;2582059;23;20230;-66
2022/01/18 05:34:13;;;;;;;3.97;2.10;;;;;;;1.80;50.85;102257.94;2576047;23;20238;-66
2022/01/18 05:35:14;;;;;;;5.35;2.08;;;;;;;3.21;51.07;102480.88;2581027;23;20148;-67
2022/01/18 05:36:14;;;;;;;5.30;2.40;;;;;;;2.94;51.30;102446.66;2580499;23;20148;-67
2022/01/18 05:37:15;;;;;;;5.73;3.37;;;;;;;2.59;51.35;102395.28;2581531;23;20226;-67
2022/01/18 05:38:16;;;;;;;3.95;2.13;;;;;;;3.34;51.42;102529.88;2580763;23;20420;-66
2022/01/18 05:39:17;;;;;;;4.37;2.20;;;;;;;3.01;51.09;102454.31;2580203;23;20568;-66
2022/01/18 05:40:19;;;;;;;3.43;2.13;;;;;;;3.41;50.88;102521.94;2582003;23;20255;-67
2022/01/18 05:41:19;;;;;;;4.43;2.40;;;;;;;2.92;51.36;102435.22;2581031;23;20143;-67
2022/01/18 05:42:20;;;;;;;5.00;2.00;;;;;;;3.37;51.38;102515.53;2565689;23;20801;-66
2022/01/18 05:43:20;;;;;;;4.80;2.30;;;;;;;3.36;51.75;102513.94;2564870;23;20240;-66
2022/01/18 05:44:25;;;;;;;4.63;2.10;;;;;;;3.34;51.45;102507.19;2579414;23;20164;-67
2022/01/18 05:45:25;;;;;;;7.25;2.83;;;;;;;3.37;51.13;102511.97;2580055;23;20220;-67
2022/01/18 05:46:26;;;;;;;3.37;2.07;;;;;;;3.18;50.82;102498.78;2580628;23;20175;-66
2022/01/18 05:47:26;;;;;;;2.97;2.00;;;;;;;3.37;50.96;102514.72;2580696;23;20212;-66
2022/01/18 05:48:27;;;;;;;4.80;2.40;;;;;;;3.32;51.12;102509.44;2577403;23;20160;-66
2022/01/18 05:49:27;;;;;;;4.67;2.40;;;;;;;3.25;51.13;102498.25;2578327;23;20183;-66
2022/01/18 05:50:28;;;;;;;5.40;2.20;;;;;;;3.20;51.20;102512.16;2577146;23;20431;-66
2022/01/18 05:51:30;;;;;;;4.70;2.67;;;;;;;2.34;51.64;102383.44;2580321;23;20150;-67
2022/01/18 05:52:31;;;;;;;9.63;3.72;;;;;;;3.23;51.89;102519.72;2580661;23;20149;-66
2022/01/18 05:53:35;;;;;;;4.70;2.27;;;;;;;3.08;52.00;102509.38;2578538;23;20153;-67
2022/01/18 05:54:35;;;;;;;5.32;2.83;;;;;;;2.43;51.87;102411.53;2577048;23;20236;-66
2022/01/18 05:55:36;;;;;;;3.50;2.20;;;;;;;2.57;51.88;102416.72;2575376;23;20585;-68
2022/01/18 05:56:36;;;;;;;3.23;1.77;;;;;;;3.26;51.35;102519.81;2575623;23;20162;-67
2022/01/18 05:57:38;;;;;;;6.17;2.10;;;;;;;3.28;52.18;102522.25;2560012;23;20167;-68
2022/01/18 05:58:42;;;;;;;2.80;1.88;;;;;;;3.06;52.16;102484.22;2564569;23;20153;-68
2022/01/18 05:59:46;;;;;;;4.38;2.30;;;;;;;3.30;51.58;102528.97;2579847;23;20208;-67
2022/01/18 06:00:52;;;;;;;6.13;3.22;;;;;;;3.30;51.54;102519.94;2565246;23;20173;-67
2022/01/18 06:02:01;;;;;;;4.38;2.50;;;;;;;3.24;51.33;102554.97;2563999;23;20145;-66
2022/01/18 06:03:10;;;;;;;4.22;1.92;;;;;;;3.29;51.40;102529.31;2575481;23;20197;-66
2022/01/18 06:04:18;;;;;;;3.40;1.80;;;;;;;3.21;52.07;102525.50;2579771;23;20137;-67
2022/01/18 06:06:51;;;;;;;2.50;1.80;;;;;;;2.94;51.75;102493.22;2578216;23;20469;-67